sensor_id;sensor_type;location;lat;lon;timestamp;temperature;humidity
68433;DHT22;55412;51.350;17.056;2023-05-10T00:00:41;9.40;55.10
68433;DHT22;55412;51.350;17.056;2023-05-10T00:03:07;9.40;55.50
68433;DHT22;55412;51.350;17.056;2023-05-10T00:05:34;9.30;55.70
68433;DHT22;55412;51.350;17.056;2023-05-10T00:08:00;9.20;55.90
68433;DHT22;55412;51.350;17.056;2023-05-10T00:10:26;9.10;56.30
68433;DHT22;55412;51.350;17.056;2023-05-10T00:12:52;9.10;56.60
68433;DHT22;55412;51.350;17.056;2023-05-10T00:15:18;9.00;56.80
68433;DHT22;55412;51.350;17.056;2023-05-10T00:17:44;8.90;57.00
68433;DHT22;55412;51.350;17.056;2023-05-10T00:20:10;8.80;57.30
68433;DHT22;55412;51.350;17.056;2023-05-10T00:22:36;8.80;57.40
68433;DHT22;55412;51.350;17.056;2023-05-10T00:25:03;8.80;57.60
68433;DHT22;55412;51.350;17.056;2023-05-10T00:27:29;8.70;57.80
68433;DHT22;55412;51.350;17.056;2023-05-10T00:29:55;8.70;58.00
68433;DHT22;55412;51.350;17.056;2023-05-10T00:32:21;8.60;58.30
68433;DHT22;55412;51.350;17.056;2023-05-10T00:34:47;8.60;58.20
68433;DHT22;55412;51.350;17.056;2023-05-10T00:37:13;8.60;58.30
68433;DHT22;55412;51.350;17.056;2023-05-10T00:39:39;8.60;58.50
68433;DHT22;55412;51.350;17.056;2023-05-10T00:42:05;8.50;58.70
68433;DHT22;55412;51.350;17.056;2023-05-10T00:44:31;8.40;58.90
68433;DHT22;55412;51.350;17.056;2023-05-10T00:46:58;8.40;59.20
68433;DHT22;55412;51.350;17.056;2023-05-10T00:49:25;8.30;59.40
68433;DHT22;55412;51.350;17.056;2023-05-10T00:51:51;8.20;59.60
68433;DHT22;55412;51.350;17.056;2023-05-10T00:54:17;8.20;59.90
68433;DHT22;55412;51.350;17.056;2023-05-10T00:56:43;8.20;60.10
68433;DHT22;55412;51.350;17.056;2023-05-10T00:59:17;8.10;60.20
68433;DHT22;55412;51.350;17.056;2023-05-10T01:01:45;8.10;60.40
68433;DHT22;55412;51.350;17.056;2023-05-10T01:04:12;8.10;60.50
68433;DHT22;55412;51.350;17.056;2023-05-10T01:06:40;8.00;60.60
68433;DHT22;55412;51.350;17.056;2023-05-10T01:09:06;8.00;60.90
68433;DHT22;55412;51.350;17.056;2023-05-10T01:11:37;8.00;60.90
68433;DHT22;55412;51.350;17.056;2023-05-10T01:14:05;8.00;61.00
68433;DHT22;55412;51.350;17.056;2023-05-10T01:16:39;8.00;61.10
68433;DHT22;55412;51.350;17.056;2023-05-10T01:19:20;8.00;61.20
68433;DHT22;55412;51.350;17.056;2023-05-10T01:31:03;7.80;61.80
68433;DHT22;55412;51.350;17.056;2023-05-10T01:34:06;7.80;62.00
68433;DHT22;55412;51.350;17.056;2023-05-10T01:36:54;7.80;62.00
68433;DHT22;55412;51.350;17.056;2023-05-10T01:42:17;7.70;62.40
68433;DHT22;55412;51.350;17.056;2023-05-10T01:44:56;7.70;62.40
68433;DHT22;55412;51.350;17.056;2023-05-10T01:47:40;7.70;62.50
68433;DHT22;55412;51.350;17.056;2023-05-10T01:50:17;7.70;62.50
68433;DHT22;55412;51.350;17.056;2023-05-10T01:52:51;7.70;62.60
68433;DHT22;55412;51.350;17.056;2023-05-10T01:55:21;7.60;62.90
68433;DHT22;55412;51.350;17.056;2023-05-10T01:57:56;7.60;63.00
68433;DHT22;55412;51.350;17.056;2023-05-10T02:00:29;7.60;63.10
68433;DHT22;55412;51.350;17.056;2023-05-10T02:02:57;7.60;63.50
68433;DHT22;55412;51.350;17.056;2023-05-10T02:05:24;7.60;63.30
68433;DHT22;55412;51.350;17.056;2023-05-10T02:07:51;7.50;63.40
68433;DHT22;55412;51.350;17.056;2023-05-10T02:10:18;7.50;63.40
68433;DHT22;55412;51.350;17.056;2023-05-10T02:12:47;7.50;63.30
68433;DHT22;55412;51.350;17.056;2023-05-10T02:15:20;7.50;63.30
68433;DHT22;55412;51.350;17.056;2023-05-10T02:17:47;7.50;63.10
68433;DHT22;55412;51.350;17.056;2023-05-10T02:20:16;7.50;63.10
68433;DHT22;55412;51.350;17.056;2023-05-10T02:22:43;7.60;63.20
68433;DHT22;55412;51.350;17.056;2023-05-10T02:25:12;7.60;63.20
68433;DHT22;55412;51.350;17.056;2023-05-10T02:27:41;7.50;63.40
68433;DHT22;55412;51.350;17.056;2023-05-10T02:30:09;7.50;63.40
68433;DHT22;55412;51.350;17.056;2023-05-10T02:32:36;7.50;63.40
68433;DHT22;55412;51.350;17.056;2023-05-10T02:35:04;7.50;63.50
68433;DHT22;55412;51.350;17.056;2023-05-10T02:37:31;7.50;63.50
68433;DHT22;55412;51.350;17.056;2023-05-10T02:39:58;7.50;63.50
68433;DHT22;55412;51.350;17.056;2023-05-10T02:42:26;7.40;63.50
68433;DHT22;55412;51.350;17.056;2023-05-10T02:44:56;7.50;63.60
68433;DHT22;55412;51.350;17.056;2023-05-10T02:47:25;7.50;63.70
68433;DHT22;55412;51.350;17.056;2023-05-10T02:49:51;7.40;63.80
68433;DHT22;55412;51.350;17.056;2023-05-10T02:52:23;7.40;63.80
68433;DHT22;55412;51.350;17.056;2023-05-10T02:54:55;7.40;63.90
68433;DHT22;55412;51.350;17.056;2023-05-10T02:57:26;7.40;63.90
68433;DHT22;55412;51.350;17.056;2023-05-10T02:59:54;7.40;63.90
68433;DHT22;55412;51.350;17.056;2023-05-10T03:02:20;7.40;63.80
68433;DHT22;55412;51.350;17.056;2023-05-10T03:04:46;7.40;63.70
68433;DHT22;55412;51.350;17.056;2023-05-10T03:07:13;7.40;63.80
68433;DHT22;55412;51.350;17.056;2023-05-10T03:09:39;7.40;63.80
68433;DHT22;55412;51.350;17.056;2023-05-10T03:12:27;7.40;63.80
68433;DHT22;55412;51.350;17.056;2023-05-10T03:15:37;7.40;63.70
68433;DHT22;55412;51.350;17.056;2023-05-10T03:18:15;7.40;63.70
68433;DHT22;55412;51.350;17.056;2023-05-10T03:20:51;7.40;63.70
68433;DHT22;55412;51.350;17.056;2023-05-10T03:23:46;7.40;63.70
68433;DHT22;55412;51.350;17.056;2023-05-10T03:26:26;7.40;63.80
68433;DHT22;55412;51.350;17.056;2023-05-10T03:28:55;7.40;63.70
68433;DHT22;55412;51.350;17.056;2023-05-10T03:31:21;7.50;63.70
68433;DHT22;55412;51.350;17.056;2023-05-10T03:33:48;7.50;63.60
68433;DHT22;55412;51.350;17.056;2023-05-10T03:36:15;7.50;63.50
68433;DHT22;55412;51.350;17.056;2023-05-10T03:38:41;7.60;63.50
68433;DHT22;55412;51.350;17.056;2023-05-10T03:41:07;7.60;63.40
68433;DHT22;55412;51.350;17.056;2023-05-10T03:43:34;7.60;63.20
68433;DHT22;55412;51.350;17.056;2023-05-10T03:46:02;7.70;62.80
68433;DHT22;55412;51.350;17.056;2023-05-10T03:48:29;7.80;62.90
68433;DHT22;55412;51.350;17.056;2023-05-10T03:50:56;7.90;62.60
68433;DHT22;55412;51.350;17.056;2023-05-10T03:53:22;7.90;62.30
68433;DHT22;55412;51.350;17.056;2023-05-10T03:55:48;8.00;62.30
68433;DHT22;55412;51.350;17.056;2023-05-10T03:58:15;8.10;61.60
68433;DHT22;55412;51.350;17.056;2023-05-10T04:00:41;8.20;61.20
68433;DHT22;55412;51.350;17.056;2023-05-10T04:03:13;8.30;61.10
68433;DHT22;55412;51.350;17.056;2023-05-10T04:05:40;8.30;61.00
68433;DHT22;55412;51.350;17.056;2023-05-10T04:08:06;8.40;60.70
68433;DHT22;55412;51.350;17.056;2023-05-10T04:10:32;8.50;60.40
68433;DHT22;55412;51.350;17.056;2023-05-10T04:12:58;8.60;59.90
68433;DHT22;55412;51.350;17.056;2023-05-10T04:15:24;8.70;60.10
68433;DHT22;55412;51.350;17.056;2023-05-10T04:17:50;8.70;59.60
68433;DHT22;55412;51.350;17.056;2023-05-10T04:20:16;8.80;59.70
68433;DHT22;55412;51.350;17.056;2023-05-10T04:22:42;8.90;59.30
68433;DHT22;55412;51.350;17.056;2023-05-10T04:25:09;9.00;59.10
68433;DHT22;55412;51.350;17.056;2023-05-10T04:27:35;9.00;58.80
68433;DHT22;55412;51.350;17.056;2023-05-10T04:30:01;9.10;58.60
68433;DHT22;55412;51.350;17.056;2023-05-10T04:32:27;9.20;58.30
68433;DHT22;55412;51.350;17.056;2023-05-10T04:34:53;9.30;57.80
68433;DHT22;55412;51.350;17.056;2023-05-10T04:37:19;9.40;58.20
68433;DHT22;55412;51.350;17.056;2023-05-10T04:39:46;9.60;57.50
68433;DHT22;55412;51.350;17.056;2023-05-10T04:42:13;9.70;57.00
68433;DHT22;55412;51.350;17.056;2023-05-10T04:44:40;9.90;56.50
68433;DHT22;55412;51.350;17.056;2023-05-10T04:47:06;10.10;56.40
68433;DHT22;55412;51.350;17.056;2023-05-10T04:49:32;10.40;55.30
68433;DHT22;55412;51.350;17.056;2023-05-10T04:51:58;10.80;54.40
68433;DHT22;55412;51.350;17.056;2023-05-10T04:54:24;11.10;53.40
68433;DHT22;55412;51.350;17.056;2023-05-10T04:56:50;11.30;53.00
68433;DHT22;55412;51.350;17.056;2023-05-10T04:59:17;11.60;51.90
68433;DHT22;55412;51.350;17.056;2023-05-10T05:01:43;11.80;51.30
68433;DHT22;55412;51.350;17.056;2023-05-10T05:04:09;11.90;51.10
68433;DHT22;55412;51.350;17.056;2023-05-10T05:06:35;12.00;51.60
68433;DHT22;55412;51.350;17.056;2023-05-10T05:09:01;12.20;50.00
68433;DHT22;55412;51.350;17.056;2023-05-10T05:11:27;12.40;50.40
68433;DHT22;55412;51.350;17.056;2023-05-10T05:13:53;12.60;50.10
68433;DHT22;55412;51.350;17.056;2023-05-10T05:16:19;12.70;49.20
68433;DHT22;55412;51.350;17.056;2023-05-10T05:18:45;12.90;48.70
68433;DHT22;55412;51.350;17.056;2023-05-10T05:21:18;13.10;48.70
68433;DHT22;55412;51.350;17.056;2023-05-10T05:23:45;13.20;49.00
68433;DHT22;55412;51.350;17.056;2023-05-10T05:26:12;13.40;48.00
68433;DHT22;55412;51.350;17.056;2023-05-10T05:28:38;13.50;47.30
68433;DHT22;55412;51.350;17.056;2023-05-10T05:31:04;13.50;47.40
68433;DHT22;55412;51.350;17.056;2023-05-10T05:33:31;13.70;48.00
68433;DHT22;55412;51.350;17.056;2023-05-10T05:36:00;13.90;47.40
68433;DHT22;55412;51.350;17.056;2023-05-10T05:38:27;14.20;47.30
68433;DHT22;55412;51.350;17.056;2023-05-10T05:40:53;14.40;46.80
68433;DHT22;55412;51.350;17.056;2023-05-10T05:43:19;14.50;46.10
68433;DHT22;55412;51.350;17.056;2023-05-10T05:45:45;14.70;46.40
68433;DHT22;55412;51.350;17.056;2023-05-10T05:48:11;14.90;45.70
68433;DHT22;55412;51.350;17.056;2023-05-10T05:50:37;15.20;45.40
68433;DHT22;55412;51.350;17.056;2023-05-10T05:53:03;15.30;44.60
68433;DHT22;55412;51.350;17.056;2023-05-10T05:55:29;15.40;45.10
68433;DHT22;55412;51.350;17.056;2023-05-10T05:57:57;15.60;44.30
68433;DHT22;55412;51.350;17.056;2023-05-10T06:00:23;15.80;44.10
68433;DHT22;55412;51.350;17.056;2023-05-10T06:02:50;16.10;43.50
68433;DHT22;55412;51.350;17.056;2023-05-10T06:05:16;16.40;42.90
68433;DHT22;55412;51.350;17.056;2023-05-10T06:07:42;16.60;42.20
68433;DHT22;55412;51.350;17.056;2023-05-10T06:10:08;16.60;42.70
68433;DHT22;55412;51.350;17.056;2023-05-10T06:12:35;16.80;42.10
68433;DHT22;55412;51.350;17.056;2023-05-10T06:15:02;17.10;41.40
68433;DHT22;55412;51.350;17.056;2023-05-10T06:17:28;17.10;41.70
68433;DHT22;55412;51.350;17.056;2023-05-10T06:19:55;17.30;41.30
68433;DHT22;55412;51.350;17.056;2023-05-10T06:22:21;17.30;41.20
68433;DHT22;55412;51.350;17.056;2023-05-10T06:24:48;17.00;41.80
68433;DHT22;55412;51.350;17.056;2023-05-10T06:27:15;17.10;41.90
68433;DHT22;55412;51.350;17.056;2023-05-10T06:29:41;17.50;42.10
68433;DHT22;55412;51.350;17.056;2023-05-10T06:32:07;17.70;41.60
68433;DHT22;55412;51.350;17.056;2023-05-10T06:34:33;18.00;40.80
68433;DHT22;55412;51.350;17.056;2023-05-10T06:36:59;18.30;40.70
68433;DHT22;55412;51.350;17.056;2023-05-10T06:39:25;18.70;40.00
68433;DHT22;55412;51.350;17.056;2023-05-10T06:41:51;19.30;39.40
68433;DHT22;55412;51.350;17.056;2023-05-10T06:44:17;19.90;38.10
68433;DHT22;55412;51.350;17.056;2023-05-10T06:46:43;20.30;37.60
68433;DHT22;55412;51.350;17.056;2023-05-10T06:49:09;20.50;36.80
68433;DHT22;55412;51.350;17.056;2023-05-10T06:51:35;21.10;36.10
68433;DHT22;55412;51.350;17.056;2023-05-10T06:54:01;21.50;35.60
68433;DHT22;55412;51.350;17.056;2023-05-10T06:56:28;22.00;35.20
68433;DHT22;55412;51.350;17.056;2023-05-10T06:58:54;22.50;34.20
68433;DHT22;55412;51.350;17.056;2023-05-10T07:01:21;23.10;33.60
68433;DHT22;55412;51.350;17.056;2023-05-10T07:03:47;23.30;33.90
68433;DHT22;55412;51.350;17.056;2023-05-10T07:06:13;23.60;33.10
68433;DHT22;55412;51.350;17.056;2023-05-10T07:08:39;23.90;32.40
68433;DHT22;55412;51.350;17.056;2023-05-10T07:11:06;24.10;31.70
68433;DHT22;55412;51.350;17.056;2023-05-10T07:13:33;23.60;31.90
68433;DHT22;55412;51.350;17.056;2023-05-10T07:16:00;23.50;32.10
68433;DHT22;55412;51.350;17.056;2023-05-10T07:18:27;23.10;33.70
68433;DHT22;55412;51.350;17.056;2023-05-10T07:20:54;23.20;33.00
68433;DHT22;55412;51.350;17.056;2023-05-10T07:23:20;23.20;32.40
68433;DHT22;55412;51.350;17.056;2023-05-10T07:25:47;23.10;33.00
68433;DHT22;55412;51.350;17.056;2023-05-10T07:28:14;23.40;33.70
68433;DHT22;55412;51.350;17.056;2023-05-10T07:30:42;23.50;32.60
68433;DHT22;55412;51.350;17.056;2023-05-10T07:33:09;23.40;32.60
68433;DHT22;55412;51.350;17.056;2023-05-10T07:35:37;23.20;33.30
68433;DHT22;55412;51.350;17.056;2023-05-10T07:38:03;22.90;33.30
68433;DHT22;55412;51.350;17.056;2023-05-10T07:40:29;22.10;34.80
68433;DHT22;55412;51.350;17.056;2023-05-10T07:42:56;21.50;35.70
68433;DHT22;55412;51.350;17.056;2023-05-10T07:45:22;20.70;37.20
68433;DHT22;55412;51.350;17.056;2023-05-10T07:47:49;20.20;37.40
68433;DHT22;55412;51.350;17.056;2023-05-10T07:50:15;19.60;38.70
68433;DHT22;55412;51.350;17.056;2023-05-10T07:52:41;19.30;39.40
68433;DHT22;55412;51.350;17.056;2023-05-10T07:55:08;19.10;39.40
68433;DHT22;55412;51.350;17.056;2023-05-10T07:57:35;18.90;40.20
68433;DHT22;55412;51.350;17.056;2023-05-10T08:00:01;18.80;40.50
68433;DHT22;55412;51.350;17.056;2023-05-10T08:02:28;18.70;41.30
68433;DHT22;55412;51.350;17.056;2023-05-10T08:04:54;18.60;40.80
68433;DHT22;55412;51.350;17.056;2023-05-10T08:07:21;18.50;42.00
68433;DHT22;55412;51.350;17.056;2023-05-10T08:09:47;18.50;42.00
68433;DHT22;55412;51.350;17.056;2023-05-10T08:12:13;18.40;42.20
68433;DHT22;55412;51.350;17.056;2023-05-10T08:14:39;18.40;42.30
68433;DHT22;55412;51.350;17.056;2023-05-10T08:17:06;18.40;42.20
68433;DHT22;55412;51.350;17.056;2023-05-10T08:19:32;18.30;42.60
68433;DHT22;55412;51.350;17.056;2023-05-10T08:21:58;18.20;43.00
68433;DHT22;55412;51.350;17.056;2023-05-10T08:24:24;18.20;43.90
68433;DHT22;55412;51.350;17.056;2023-05-10T08:26:50;18.30;43.10
68433;DHT22;55412;51.350;17.056;2023-05-10T08:29:16;18.30;43.40
68433;DHT22;55412;51.350;17.056;2023-05-10T08:31:42;18.30;43.10
68433;DHT22;55412;51.350;17.056;2023-05-10T08:34:08;18.30;43.30
68433;DHT22;55412;51.350;17.056;2023-05-10T08:36:34;18.20;43.10
68433;DHT22;55412;51.350;17.056;2023-05-10T08:39:00;18.00;43.30
68433;DHT22;55412;51.350;17.056;2023-05-10T08:41:26;18.00;43.60
68433;DHT22;55412;51.350;17.056;2023-05-10T08:43:53;18.00;44.00
68433;DHT22;55412;51.350;17.056;2023-05-10T08:46:21;18.10;43.30
68433;DHT22;55412;51.350;17.056;2023-05-10T08:48:49;18.10;44.20
68433;DHT22;55412;51.350;17.056;2023-05-10T08:51:23;18.10;43.90
68433;DHT22;55412;51.350;17.056;2023-05-10T08:53:53;18.10;43.30
68433;DHT22;55412;51.350;17.056;2023-05-10T08:56:20;18.10;43.80
68433;DHT22;55412;51.350;17.056;2023-05-10T08:58:46;18.20;43.10
68433;DHT22;55412;51.350;17.056;2023-05-10T09:01:13;18.20;43.20
68433;DHT22;55412;51.350;17.056;2023-05-10T09:03:42;18.10;43.30
68433;DHT22;55412;51.350;17.056;2023-05-10T09:06:08;18.20;42.90
68433;DHT22;55412;51.350;17.056;2023-05-10T09:08:34;18.30;43.00
68433;DHT22;55412;51.350;17.056;2023-05-10T09:11:02;18.20;43.50
68433;DHT22;55412;51.350;17.056;2023-05-10T09:13:28;18.10;43.40
68433;DHT22;55412;51.350;17.056;2023-05-10T09:15:55;18.30;43.00
68433;DHT22;55412;51.350;17.056;2023-05-10T09:18:21;18.40;42.70
68433;DHT22;55412;51.350;17.056;2023-05-10T09:20:48;18.40;43.40
68433;DHT22;55412;51.350;17.056;2023-05-10T09:23:15;18.60;43.20
68433;DHT22;55412;51.350;17.056;2023-05-10T09:25:44;18.60;42.10
68433;DHT22;55412;51.350;17.056;2023-05-10T09:28:11;18.60;42.20
68433;DHT22;55412;51.350;17.056;2023-05-10T09:30:37;18.70;42.00
68433;DHT22;55412;51.350;17.056;2023-05-10T09:33:03;18.70;40.80
68433;DHT22;55412;51.350;17.056;2023-05-10T09:35:32;18.70;42.40
68433;DHT22;55412;51.350;17.056;2023-05-10T09:38:04;18.80;40.90
68433;DHT22;55412;51.350;17.056;2023-05-10T09:40:31;18.80;41.50
68433;DHT22;55412;51.350;17.056;2023-05-10T09:43:02;18.90;41.40
68433;DHT22;55412;51.350;17.056;2023-05-10T09:45:31;19.00;41.40
68433;DHT22;55412;51.350;17.056;2023-05-10T09:47:59;19.10;40.20
68433;DHT22;55412;51.350;17.056;2023-05-10T09:50:27;19.00;40.60
68433;DHT22;55412;51.350;17.056;2023-05-10T09:53:02;18.90;41.20
68433;DHT22;55412;51.350;17.056;2023-05-10T09:55:45;18.90;41.90
68433;DHT22;55412;51.350;17.056;2023-05-10T09:58:15;19.10;41.00
68433;DHT22;55412;51.350;17.056;2023-05-10T10:00:42;19.10;40.90
68433;DHT22;55412;51.350;17.056;2023-05-10T10:03:18;19.20;41.00
68433;DHT22;55412;51.350;17.056;2023-05-10T10:05:47;19.40;40.60
68433;DHT22;55412;51.350;17.056;2023-05-10T10:08:14;19.50;40.70
68433;DHT22;55412;51.350;17.056;2023-05-10T10:10:41;19.50;39.40
68433;DHT22;55412;51.350;17.056;2023-05-10T10:13:09;19.50;39.80
68433;DHT22;55412;51.350;17.056;2023-05-10T10:15:35;19.60;39.60
68433;DHT22;55412;51.350;17.056;2023-05-10T10:18:02;19.60;39.20
68433;DHT22;55412;51.350;17.056;2023-05-10T10:20:31;19.60;39.00
68433;DHT22;55412;51.350;17.056;2023-05-10T10:22:57;19.70;40.60
68433;DHT22;55412;51.350;17.056;2023-05-10T10:25:25;19.70;38.60
68433;DHT22;55412;51.350;17.056;2023-05-10T10:30:29;19.70;39.40
68433;DHT22;55412;51.350;17.056;2023-05-10T10:36:06;19.70;38.90
68433;DHT22;55412;51.350;17.056;2023-05-10T10:41:36;19.70;40.20
68433;DHT22;55412;51.350;17.056;2023-05-10T10:50:07;20.00;38.80
68433;DHT22;55412;51.350;17.056;2023-05-10T10:52:42;20.00;38.40
68433;DHT22;55412;51.350;17.056;2023-05-10T10:55:19;20.00;38.00
68433;DHT22;55412;51.350;17.056;2023-05-10T10:57:53;19.90;39.80
68433;DHT22;55412;51.350;17.056;2023-05-10T11:00:25;19.90;39.00
68433;DHT22;55412;51.350;17.056;2023-05-10T11:03:10;19.80;39.50
68433;DHT22;55412;51.350;17.056;2023-05-10T11:05:44;19.90;38.60
68433;DHT22;55412;51.350;17.056;2023-05-10T11:10:48;19.80;38.40
68433;DHT22;55412;51.350;17.056;2023-05-10T11:13:30;19.80;38.40
68433;DHT22;55412;51.350;17.056;2023-05-10T11:15:58;19.90;37.80
68433;DHT22;55412;51.350;17.056;2023-05-10T11:18:37;19.90;38.60
68433;DHT22;55412;51.350;17.056;2023-05-10T11:21:03;20.00;38.10
68433;DHT22;55412;51.350;17.056;2023-05-10T11:23:54;20.10;37.00
68433;DHT22;55412;51.350;17.056;2023-05-10T11:26:24;20.10;38.10
68433;DHT22;55412;51.350;17.056;2023-05-10T11:29:12;20.10;38.40
68433;DHT22;55412;51.350;17.056;2023-05-10T11:31:45;20.10;37.60
68433;DHT22;55412;51.350;17.056;2023-05-10T11:34:27;20.10;37.20
68433;DHT22;55412;51.350;17.056;2023-05-10T11:36:56;20.00;38.40
68433;DHT22;55412;51.350;17.056;2023-05-10T11:39:27;20.10;36.60
68433;DHT22;55412;51.350;17.056;2023-05-10T11:41:54;20.00;37.70
68433;DHT22;55412;51.350;17.056;2023-05-10T11:44:21;19.90;37.50
68433;DHT22;55412;51.350;17.056;2023-05-10T11:46:47;19.90;38.10
68433;DHT22;55412;51.350;17.056;2023-05-10T11:49:14;20.10;39.30
68433;DHT22;55412;51.350;17.056;2023-05-10T11:51:40;20.20;37.60
68433;DHT22;55412;51.350;17.056;2023-05-10T11:54:10;20.00;38.80
68433;DHT22;55412;51.350;17.056;2023-05-10T11:56:40;20.10;37.70
68433;DHT22;55412;51.350;17.056;2023-05-10T11:59:07;20.00;36.20
68433;DHT22;55412;51.350;17.056;2023-05-10T12:01:33;19.90;37.40
68433;DHT22;55412;51.350;17.056;2023-05-10T12:04:00;19.90;36.80
68433;DHT22;55412;51.350;17.056;2023-05-10T12:06:28;20.00;37.20
68433;DHT22;55412;51.350;17.056;2023-05-10T12:08:57;20.00;37.60
68433;DHT22;55412;51.350;17.056;2023-05-10T12:11:27;20.00;37.00
68433;DHT22;55412;51.350;17.056;2023-05-10T12:13:55;19.90;37.00
68433;DHT22;55412;51.350;17.056;2023-05-10T12:16:26;20.00;38.60
68433;DHT22;55412;51.350;17.056;2023-05-10T12:18:58;20.20;36.90
68433;DHT22;55412;51.350;17.056;2023-05-10T12:21:25;20.20;36.60
68433;DHT22;55412;51.350;17.056;2023-05-10T12:23:54;20.00;37.50
68433;DHT22;55412;51.350;17.056;2023-05-10T12:26:23;20.00;38.30
68433;DHT22;55412;51.350;17.056;2023-05-10T12:28:54;20.00;37.80
68433;DHT22;55412;51.350;17.056;2023-05-10T12:31:21;20.10;38.60
68433;DHT22;55412;51.350;17.056;2023-05-10T12:33:47;20.20;38.10
68433;DHT22;55412;51.350;17.056;2023-05-10T12:36:15;20.20;38.50
68433;DHT22;55412;51.350;17.056;2023-05-10T12:38:43;20.20;38.40
68433;DHT22;55412;51.350;17.056;2023-05-10T12:41:15;20.10;37.60
68433;DHT22;55412;51.350;17.056;2023-05-10T12:43:42;20.00;38.50
68433;DHT22;55412;51.350;17.056;2023-05-10T12:46:09;20.00;37.90
68433;DHT22;55412;51.350;17.056;2023-05-10T12:48:38;19.90;38.00
68433;DHT22;55412;51.350;17.056;2023-05-10T12:51:05;19.90;37.70
68433;DHT22;55412;51.350;17.056;2023-05-10T12:53:35;20.00;37.20
68433;DHT22;55412;51.350;17.056;2023-05-10T12:56:02;20.10;37.40
68433;DHT22;55412;51.350;17.056;2023-05-10T12:58:28;20.20;37.40
68433;DHT22;55412;51.350;17.056;2023-05-10T13:00:54;20.20;37.80
68433;DHT22;55412;51.350;17.056;2023-05-10T13:03:22;20.40;38.00
68433;DHT22;55412;51.350;17.056;2023-05-10T13:05:48;20.50;37.80
68433;DHT22;55412;51.350;17.056;2023-05-10T13:08:14;20.60;37.50
68433;DHT22;55412;51.350;17.056;2023-05-10T13:10:40;20.80;36.00
68433;DHT22;55412;51.350;17.056;2023-05-10T13:13:07;20.80;36.60
68433;DHT22;55412;51.350;17.056;2023-05-10T13:15:34;20.70;36.30
68433;DHT22;55412;51.350;17.056;2023-05-10T13:18:00;20.70;37.10
68433;DHT22;55412;51.350;17.056;2023-05-10T13:20:26;20.60;36.20
68433;DHT22;55412;51.350;17.056;2023-05-10T13:22:53;20.60;36.30
68433;DHT22;55412;51.350;17.056;2023-05-10T13:25:19;20.60;36.30
68433;DHT22;55412;51.350;17.056;2023-05-10T13:27:45;20.60;37.40
68433;DHT22;55412;51.350;17.056;2023-05-10T13:30:11;20.60;36.60
68433;DHT22;55412;51.350;17.056;2023-05-10T13:32:38;20.40;37.00
68433;DHT22;55412;51.350;17.056;2023-05-10T13:35:04;20.30;36.80
68433;DHT22;55412;51.350;17.056;2023-05-10T13:37:31;20.30;36.60
68433;DHT22;55412;51.350;17.056;2023-05-10T13:40:01;20.40;37.70
68433;DHT22;55412;51.350;17.056;2023-05-10T13:42:27;20.40;36.50
68433;DHT22;55412;51.350;17.056;2023-05-10T13:44:53;20.40;37.30
68433;DHT22;55412;51.350;17.056;2023-05-10T13:47:20;20.30;37.00
68433;DHT22;55412;51.350;17.056;2023-05-10T13:49:47;20.30;37.50
68433;DHT22;55412;51.350;17.056;2023-05-10T13:52:13;20.30;38.00
68433;DHT22;55412;51.350;17.056;2023-05-10T13:54:39;20.30;37.40
68433;DHT22;55412;51.350;17.056;2023-05-10T13:57:05;20.30;38.20
68433;DHT22;55412;51.350;17.056;2023-05-10T13:59:32;20.40;37.10
68433;DHT22;55412;51.350;17.056;2023-05-10T14:01:59;20.40;36.70
68433;DHT22;55412;51.350;17.056;2023-05-10T14:04:26;20.40;36.70
68433;DHT22;55412;51.350;17.056;2023-05-10T14:06:52;20.40;36.40
68433;DHT22;55412;51.350;17.056;2023-05-10T14:09:18;20.30;36.40
68433;DHT22;55412;51.350;17.056;2023-05-10T14:11:45;20.20;36.30
68433;DHT22;55412;51.350;17.056;2023-05-10T14:14:11;20.20;36.60
68433;DHT22;55412;51.350;17.056;2023-05-10T14:16:38;20.20;37.00
68433;DHT22;55412;51.350;17.056;2023-05-10T14:19:07;20.20;36.80
68433;DHT22;55412;51.350;17.056;2023-05-10T14:21:33;20.30;36.30
68433;DHT22;55412;51.350;17.056;2023-05-10T14:23:59;20.30;36.60
68433;DHT22;55412;51.350;17.056;2023-05-10T14:26:26;20.40;36.90
68433;DHT22;55412;51.350;17.056;2023-05-10T14:28:52;20.50;36.60
68433;DHT22;55412;51.350;17.056;2023-05-10T14:31:19;20.50;36.60
68433;DHT22;55412;51.350;17.056;2023-05-10T14:33:46;20.60;36.70
68433;DHT22;55412;51.350;17.056;2023-05-10T14:36:13;20.60;36.50
68433;DHT22;55412;51.350;17.056;2023-05-10T14:38:40;20.60;37.00
68433;DHT22;55412;51.350;17.056;2023-05-10T14:41:06;20.60;36.40
68433;DHT22;55412;51.350;17.056;2023-05-10T14:43:32;20.60;36.30
68433;DHT22;55412;51.350;17.056;2023-05-10T14:45:58;20.40;36.20
68433;DHT22;55412;51.350;17.056;2023-05-10T14:48:24;20.40;36.40
68433;DHT22;55412;51.350;17.056;2023-05-10T14:50:50;20.40;36.60
68433;DHT22;55412;51.350;17.056;2023-05-10T14:53:18;20.40;36.60
68433;DHT22;55412;51.350;17.056;2023-05-10T14:55:44;20.40;36.40
68433;DHT22;55412;51.350;17.056;2023-05-10T14:58:10;20.30;36.50
68433;DHT22;55412;51.350;17.056;2023-05-10T15:00:36;20.30;37.20
68433;DHT22;55412;51.350;17.056;2023-05-10T15:03:03;20.30;37.00
68433;DHT22;55412;51.350;17.056;2023-05-10T15:05:29;20.30;38.20
68433;DHT22;55412;51.350;17.056;2023-05-10T15:07:55;20.30;36.70
68433;DHT22;55412;51.350;17.056;2023-05-10T15:10:21;20.30;36.60
68433;DHT22;55412;51.350;17.056;2023-05-10T15:12:47;20.40;37.30
68433;DHT22;55412;51.350;17.056;2023-05-10T15:15:13;20.50;37.20
68433;DHT22;55412;51.350;17.056;2023-05-10T15:17:40;20.50;36.80
68433;DHT22;55412;51.350;17.056;2023-05-10T15:20:07;20.40;37.50
68433;DHT22;55412;51.350;17.056;2023-05-10T15:22:33;20.40;37.70
68433;DHT22;55412;51.350;17.056;2023-05-10T15:24:59;20.40;37.50
68433;DHT22;55412;51.350;17.056;2023-05-10T15:27:25;20.40;37.30
68433;DHT22;55412;51.350;17.056;2023-05-10T15:29:52;20.40;36.00
68433;DHT22;55412;51.350;17.056;2023-05-10T15:32:18;20.30;35.80
68433;DHT22;55412;51.350;17.056;2023-05-10T15:34:44;20.30;36.30
68433;DHT22;55412;51.350;17.056;2023-05-10T15:37:10;20.20;36.70
68433;DHT22;55412;51.350;17.056;2023-05-10T15:39:36;20.20;36.80
68433;DHT22;55412;51.350;17.056;2023-05-10T15:42:02;20.20;36.60
68433;DHT22;55412;51.350;17.056;2023-05-10T15:44:29;20.10;36.80
68433;DHT22;55412;51.350;17.056;2023-05-10T15:46:55;20.10;37.40
68433;DHT22;55412;51.350;17.056;2023-05-10T15:49:22;20.00;37.20
68433;DHT22;55412;51.350;17.056;2023-05-10T15:51:48;20.00;37.00
68433;DHT22;55412;51.350;17.056;2023-05-10T15:54:14;19.90;37.30